sensor_id;sensor_type;location;lat;lon;timestamp;pressure;altitude;pressure_sealevel;temperature;humidity
20630;BME280;17386;43.846;25.950;2023-04-15T00:02:18;100451.44;;;14.68;90.82
20630;BME280;17386;43.846;25.950;2023-04-15T00:04:46;100465.75;;;14.67;90.09
20630;BME280;17386;43.846;25.950;2023-04-15T00:07:12;100463.78;;;14.71;89.52
20630;BME280;17386;43.846;25.950;2023-04-15T00:09:40;100475.16;;;14.74;90.30
20630;BME280;17386;43.846;25.950;2023-04-15T00:12:06;100471.47;;;14.77;89.63
20630;BME280;17386;43.846;25.950;2023-04-15T00:14:33;100456.53;;;14.73;89.74
20630;BME280;17386;43.846;25.950;2023-04-15T00:16:59;100465.50;;;14.72;90.67
20630;BME280;17386;43.846;25.950;2023-04-15T00:19:25;100446.38;;;14.64;90.98
20630;BME280;17386;43.846;25.950;2023-04-15T00:21:50;100447.03;;;14.67;91.15
20630;BME280;17386;43.846;25.950;2023-04-15T00:24:16;100451.63;;;14.65;90.29
20630;BME280;17386;43.846;25.950;2023-04-15T00:26:41;100456.31;;;14.62;91.77
20630;BME280;17386;43.846;25.950;2023-04-15T00:29:06;100473.03;;;14.49;92.42
20630;BME280;17386;43.846;25.950;2023-04-15T00:31:32;100464.03;;;14.35;91.01
20630;BME280;17386;43.846;25.950;2023-04-15T00:33:57;100473.66;;;14.37;93.85
20630;BME280;17386;43.846;25.950;2023-04-15T00:36:23;100473.34;;;14.28;94.25
20630;BME280;17386;43.846;25.950;2023-04-15T00:38:50;100490.03;;;14.31;96.14
20630;BME280;17386;43.846;25.950;2023-04-15T00:41:17;100493.13;;;14.23;96.97
20630;BME280;17386;43.846;25.950;2023-04-15T00:43:43;100478.09;;;14.05;98.56
20630;BME280;17386;43.846;25.950;2023-04-15T00:46:08;100490.59;;;14.05;99.60
20630;BME280;17386;43.846;25.950;2023-04-15T00:48:36;100490.69;;;14.03;100.00
20630;BME280;17386;43.846;25.950;2023-04-15T00:51:03;100489.38;;;13.94;100.00
20630;BME280;17386;43.846;25.950;2023-04-15T00:53:28;100480.94;;;14.02;100.00
20630;BME280;17386;43.846;25.950;2023-04-15T00:55:54;100495.78;;;14.08;100.00
20630;BME280;17386;43.846;25.950;2023-04-15T00:58:20;100493.78;;;13.95;100.00
20630;BME280;17386;43.846;25.950;2023-04-15T01:00:45;100496.47;;;13.78;100.00
20630;BME280;17386;43.846;25.950;2023-04-15T01:03:12;100494.66;;;13.79;100.00
20630;BME280;17386;43.846;25.950;2023-04-15T01:05:38;100488.53;;;13.77;100.00
20630;BME280;17386;43.846;25.950;2023-04-15T01:08:04;100484.91;;;13.78;100.00
20630;BME280;17386;43.846;25.950;2023-04-15T01:10:30;100477.53;;;13.83;100.00
20630;BME280;17386;43.846;25.950;2023-04-15T01:12:56;100479.25;;;13.84;100.00
20630;BME280;17386;43.846;25.950;2023-04-15T01:15:22;100481.84;;;13.85;100.00
20630;BME280;17386;43.846;25.950;2023-04-15T01:17:48;100481.69;;;13.88;100.00
20630;BME280;17386;43.846;25.950;2023-04-15T01:20:14;100498.56;;;13.89;100.00
20630;BME280;17386;43.846;25.950;2023-04-15T01:22:40;100507.31;;;13.75;100.00
20630;BME280;17386;43.846;25.950;2023-04-15T01:25:10;100510.94;;;13.74;100.00
20630;BME280;17386;43.846;25.950;2023-04-15T01:27:40;100529.03;;;13.85;100.00
20630;BME280;17386;43.846;25.950;2023-04-15T01:30:07;100535.09;;;13.88;100.00
20630;BME280;17386;43.846;25.950;2023-04-15T01:32:33;100533.28;;;13.89;100.00
20630;BME280;17386;43.846;25.950;2023-04-15T01:34:58;100521.13;;;13.83;100.00
20630;BME280;17386;43.846;25.950;2023-04-15T01:37:24;100519.47;;;13.81;100.00
20630;BME280;17386;43.846;25.950;2023-04-15T01:39:50;100519.72;;;13.76;100.00
20630;BME280;17386;43.846;25.950;2023-04-15T01:42:16;100517.28;;;13.72;100.00
20630;BME280;17386;43.846;25.950;2023-04-15T01:44:41;100518.22;;;13.71;100.00
20630;BME280;17386;43.846;25.950;2023-04-15T01:47:07;100516.28;;;13.74;100.00
20630;BME280;17386;43.846;25.950;2023-04-15T01:49:32;100518.13;;;13.72;100.00
20630;BME280;17386;43.846;25.950;2023-04-15T01:51:58;100511.94;;;13.72;100.00
20630;BME280;17386;43.846;25.950;2023-04-15T01:54:23;100522.56;;;13.73;100.00
20630;BME280;17386;43.846;25.950;2023-04-15T01:56:49;100539.50;;;13.72;100.00
20630;BME280;17386;43.846;25.950;2023-04-15T01:59:14;100535.81;;;13.75;100.00
20630;BME280;17386;43.846;25.950;2023-04-15T02:01:40;100518.00;;;13.75;100.00
20630;BME280;17386;43.846;25.950;2023-04-15T02:04:06;100493.19;;;13.56;100.00
20630;BME280;17386;43.846;25.950;2023-04-15T02:06:32;100515.56;;;13.71;100.00
20630;BME280;17386;43.846;25.950;2023-04-15T02:08:57;100506.78;;;13.68;100.00
20630;BME280;17386;43.846;25.950;2023-04-15T02:11:23;100498.84;;;13.67;100.00
20630;BME280;17386;43.846;25.950;2023-04-15T02:13:48;100487.22;;;13.68;100.00
20630;BME280;17386;43.846;25.950;2023-04-15T02:16:15;100495.16;;;13.69;100.00
20630;BME280;17386;43.846;25.950;2023-04-15T02:18:43;100490.66;;;13.70;100.00
20630;BME280;17386;43.846;25.950;2023-04-15T02:21:08;100497.66;;;13.73;100.00
20630;BME280;17386;43.846;25.950;2023-04-15T02:23:34;100503.94;;;13.72;100.00
20630;BME280;17386;43.846;25.950;2023-04-15T02:25:59;100513.91;;;13.68;100.00
20630;BME280;17386;43.846;25.950;2023-04-15T02:28:25;100515.81;;;13.66;100.00
20630;BME280;17386;43.846;25.950;2023-04-15T02:30:51;100508.44;;;13.54;100.00
20630;BME280;17386;43.846;25.950;2023-04-15T02:33:18;100523.09;;;13.62;100.00
20630;BME280;17386;43.846;25.950;2023-04-15T02:35:44;100529.16;;;13.66;100.00
20630;BME280;17386;43.846;25.950;2023-04-15T02:38:10;100527.41;;;13.65;100.00
20630;BME280;17386;43.846;25.950;2023-04-15T02:40:39;100525.78;;;13.62;100.00
20630;BME280;17386;43.846;25.950;2023-04-15T02:43:04;100517.94;;;13.59;100.00
20630;BME280;17386;43.846;25.950;2023-04-15T02:45:31;100497.03;;;13.50;100.00
20630;BME280;17386;43.846;25.950;2023-04-15T02:47:57;100467.84;;;13.47;100.00
20630;BME280;17386;43.846;25.950;2023-04-15T02:50:22;100465.34;;;13.44;100.00
20630;BME280;17386;43.846;25.950;2023-04-15T02:52:49;100482.47;;;13.40;100.00
20630;BME280;17386;43.846;25.950;2023-04-15T02:55:16;100502.00;;;13.40;100.00
20630;BME280;17386;43.846;25.950;2023-04-15T02:57:42;100521.69;;;13.38;100.00
20630;BME280;17386;43.846;25.950;2023-04-15T03:00:08;100522.94;;;13.31;100.00
20630;BME280;17386;43.846;25.950;2023-04-15T03:02:36;100522.06;;;13.30;100.00
20630;BME280;17386;43.846;25.950;2023-04-15T03:05:02;100529.16;;;13.31;100.00
20630;BME280;17386;43.846;25.950;2023-04-15T03:07:29;100528.25;;;13.31;100.00
20630;BME280;17386;43.846;25.950;2023-04-15T03:09:54;100515.81;;;13.31;100.00
20630;BME280;17386;43.846;25.950;2023-04-15T03:12:20;100512.34;;;13.29;100.00
20630;BME280;17386;43.846;25.950;2023-04-15T03:14:45;100500.03;;;13.27;100.00
20630;BME280;17386;43.846;25.950;2023-04-15T03:17:11;100495.88;;;13.21;100.00
20630;BME280;17386;43.846;25.950;2023-04-15T03:19:36;100501.38;;;13.17;100.00
20630;BME280;17386;43.846;25.950;2023-04-15T03:22:01;100524.41;;;13.19;100.00
20630;BME280;17386;43.846;25.950;2023-04-15T03:24:27;100530.72;;;13.17;100.00
20630;BME280;17386;43.846;25.950;2023-04-15T03:26:54;100535.66;;;13.07;100.00
20630;BME280;17386;43.846;25.950;2023-04-15T03:29:20;100561.47;;;13.06;100.00
20630;BME280;17386;43.846;25.950;2023-04-15T03:31:46;100570.53;;;13.02;100.00
20630;BME280;17386;43.846;25.950;2023-04-15T03:34:11;100570.41;;;13.05;100.00
20630;BME280;17386;43.846;25.950;2023-04-15T03:36:36;100569.31;;;13.09;100.00
20630;BME280;17386;43.846;25.950;2023-04-15T03:39:02;100565.47;;;13.15;100.00
20630;BME280;17386;43.846;25.950;2023-04-15T03:41:28;100554.03;;;13.13;100.00
20630;BME280;17386;43.846;25.950;2023-04-15T03:43:53;100574.22;;;13.19;100.00
20630;BME280;17386;43.846;25.950;2023-04-15T03:46:19;100574.16;;;13.20;100.00
20630;BME280;17386;43.846;25.950;2023-04-15T03:48:45;100579.50;;;13.20;100.00
20630;BME280;17386;43.846;25.950;2023-04-15T03:51:11;100564.50;;;13.18;100.00
20630;BME280;17386;43.846;25.950;2023-04-15T03:53:36;100572.63;;;13.14;100.00
20630;BME280;17386;43.846;25.950;2023-04-15T03:56:02;100572.84;;;13.10;100.00
20630;BME280;17386;43.846;25.950;2023-04-15T03:58:27;100583.81;;;13.04;100.00
20630;BME280;17386;43.846;25.950;2023-04-15T04:00:52;100565.38;;;12.99;100.00
20630;BME280;17386;43.846;25.950;2023-04-15T04:03:19;100563.41;;;13.03;100.00
20630;BME280;17386;43.846;25.950;2023-04-15T04:05:44;100570.25;;;13.08;100.00
20630;BME280;17386;43.846;25.950;2023-04-15T04:08:10;100568.16;;;13.15;100.00
20630;BME280;17386;43.846;25.950;2023-04-15T04:10:38;100571.53;;;13.19;100.00
20630;BME280;17386;43.846;25.950;2023-04-15T04:13:04;100576.88;;;13.19;100.00
20630;BME280;17386;43.846;25.950;2023-04-15T04:15:29;100569.94;;;13.14;100.00
20630;BME280;17386;43.846;25.950;2023-04-15T04:17:55;100577.84;;;12.99;100.00
20630;BME280;17386;43.846;25.950;2023-04-15T04:20:20;100563.50;;;12.82;100.00
20630;BME280;17386;43.846;25.950;2023-04-15T04:22:46;100557.75;;;12.92;100.00
20630;BME280;17386;43.846;25.950;2023-04-15T04:25:11;100553.59;;;13.03;100.00
20630;BME280;17386;43.846;25.950;2023-04-15T04:27:37;100557.66;;;13.12;100.00
20630;BME280;17386;43.846;25.950;2023-04-15T04:30:03;100565.25;;;13.20;100.00
20630;BME280;17386;43.846;25.950;2023-04-15T04:32:29;100582.94;;;13.22;100.00
20630;BME280;17386;43.846;25.950;2023-04-15T04:34:54;100590.81;;;13.25;100.00
20630;BME280;17386;43.846;25.950;2023-04-15T04:37:20;100594.25;;;13.08;100.00
20630;BME280;17386;43.846;25.950;2023-04-15T04:39:45;100599.09;;;13.00;100.00
20630;BME280;17386;43.846;25.950;2023-04-15T04:42:10;100604.25;;;13.03;100.00
20630;BME280;17386;43.846;25.950;2023-04-15T04:44:36;100606.88;;;13.05;100.00
20630;BME280;17386;43.846;25.950;2023-04-15T04:47:02;100610.03;;;13.13;100.00
20630;BME280;17386;43.846;25.950;2023-04-15T04:49:27;100611.94;;;13.11;100.00
20630;BME280;17386;43.846;25.950;2023-04-15T04:51:53;100609.09;;;13.14;100.00
20630;BME280;17386;43.846;25.950;2023-04-15T04:54:18;100606.44;;;13.14;100.00
20630;BME280;17386;43.846;25.950;2023-04-15T04:56:44;100626.41;;;13.24;100.00
20630;BME280;17386;43.846;25.950;2023-04-15T04:59:09;100610.19;;;13.29;100.00
20630;BME280;17386;43.846;25.950;2023-04-15T05:01:34;100614.56;;;13.30;100.00
20630;BME280;17386;43.846;25.950;2023-04-15T05:04:00;100630.28;;;13.36;100.00
20630;BME280;17386;43.846;25.950;2023-04-15T05:06:26;100629.91;;;13.44;100.00
20630;BME280;17386;43.846;25.950;2023-04-15T05:08:51;100629.69;;;13.48;100.00
20630;BME280;17386;43.846;25.950;2023-04-15T05:11:17;100632.19;;;13.51;100.00
20630;BME280;17386;43.846;25.950;2023-04-15T05:13:42;100636.63;;;13.52;100.00
20630;BME280;17386;43.846;25.950;2023-04-15T05:16:08;100640.94;;;13.55;100.00
20630;BME280;17386;43.846;25.950;2023-04-15T05:18:33;100639.91;;;13.57;100.00
20630;BME280;17386;43.846;25.950;2023-04-15T05:20:59;100638.72;;;13.46;100.00
20630;BME280;17386;43.846;25.950;2023-04-15T05:23:24;100658.53;;;13.59;100.00
20630;BME280;17386;43.846;25.950;2023-04-15T05:25:50;100668.56;;;13.54;100.00
20630;BME280;17386;43.846;25.950;2023-04-15T05:28:15;100659.25;;;13.44;100.00
20630;BME280;17386;43.846;25.950;2023-04-15T05:30:41;100665.06;;;13.34;100.00
20630;BME280;17386;43.846;25.950;2023-04-15T05:33:06;100652.00;;;12.91;100.00
20630;BME280;17386;43.846;25.950;2023-04-15T05:35:32;100660.00;;;12.91;100.00
20630;BME280;17386;43.846;25.950;2023-04-15T05:37:58;100659.19;;;13.07;100.00
20630;BME280;17386;43.846;25.950;2023-04-15T05:40:23;100650.63;;;13.20;100.00
20630;BME280;17386;43.846;25.950;2023-04-15T05:42:49;100657.22;;;13.31;100.00
20630;BME280;17386;43.846;25.950;2023-04-15T05:45:14;100661.97;;;13.25;100.00
20630;BME280;17386;43.846;25.950;2023-04-15T05:47:39;100664.84;;;13.20;100.00
20630;BME280;17386;43.846;25.950;2023-04-15T05:50:05;100673.72;;;13.39;100.00
20630;BME280;17386;43.846;25.950;2023-04-15T05:52:31;100665.66;;;13.58;100.00
20630;BME280;17386;43.846;25.950;2023-04-15T05:54:56;100666.22;;;13.65;100.00
20630;BME280;17386;43.846;25.950;2023-04-15T05:57:22;100666.56;;;13.40;100.00
20630;BME280;17386;43.846;25.950;2023-04-15T05:59:48;100668.84;;;13.48;100.00
20630;BME280;17386;43.846;25.950;2023-04-15T06:02:13;100665.16;;;13.50;100.00
20630;BME280;17386;43.846;25.950;2023-04-15T06:04:39;100669.34;;;13.56;100.00
20630;BME280;17386;43.846;25.950;2023-04-15T06:07:04;100657.59;;;13.60;100.00
20630;BME280;17386;43.846;25.950;2023-04-15T06:09:30;100660.19;;;13.79;100.00
20630;BME280;17386;43.846;25.950;2023-04-15T06:11:58;100661.84;;;13.99;100.00
20630;BME280;17386;43.846;25.950;2023-04-15T06:14:24;100664.66;;;14.13;100.00
20630;BME280;17386;43.846;25.950;2023-04-15T06:16:49;100665.09;;;14.22;100.00
20630;BME280;17386;43.846;25.950;2023-04-15T06:19:15;100681.66;;;14.12;100.00
20630;BME280;17386;43.846;25.950;2023-04-15T06:21:40;100682.66;;;13.75;100.00
20630;BME280;17386;43.846;25.950;2023-04-15T06:24:06;100683.22;;;13.81;100.00
20630;BME280;17386;43.846;25.950;2023-04-15T06:26:31;100675.97;;;13.83;100.00
20630;BME280;17386;43.846;25.950;2023-04-15T06:28:57;100675.94;;;14.02;100.00
20630;BME280;17386;43.846;25.950;2023-04-15T06:31:22;100672.91;;;14.26;100.00
20630;BME280;17386;43.846;25.950;2023-04-15T06:33:48;100678.56;;;14.54;100.00
20630;BME280;17386;43.846;25.950;2023-04-15T06:36:13;100680.50;;;14.68;100.00
20630;BME280;17386;43.846;25.950;2023-04-15T06:38:39;100684.34;;;14.80;100.00
20630;BME280;17386;43.846;25.950;2023-04-15T06:41:05;100690.88;;;14.74;100.00
20630;BME280;17386;43.846;25.950;2023-04-15T06:43:30;100694.91;;;14.83;100.00
20630;BME280;17386;43.846;25.950;2023-04-15T06:45:56;100693.34;;;14.94;100.00
20630;BME280;17386;43.846;25.950;2023-04-15T06:48:21;100700.63;;;15.08;100.00
20630;BME280;17386;43.846;25.950;2023-04-15T06:50:48;100695.63;;;15.18;100.00
20630;BME280;17386;43.846;25.950;2023-04-15T06:53:13;100695.22;;;15.25;100.00
20630;BME280;17386;43.846;25.950;2023-04-15T06:55:39;100703.56;;;15.35;100.00
20630;BME280;17386;43.846;25.950;2023-04-15T06:58:05;100697.88;;;15.41;100.00
20630;BME280;17386;43.846;25.950;2023-04-15T07:00:31;100698.56;;;15.29;100.00
20630;BME280;17386;43.846;25.950;2023-04-15T07:02:58;100689.41;;;15.33;100.00
20630;BME280;17386;43.846;25.950;2023-04-15T07:05:25;100695.03;;;15.60;100.00
20630;BME280;17386;43.846;25.950;2023-04-15T07:07:50;100702.31;;;15.74;100.00
20630;BME280;17386;43.846;25.950;2023-04-15T07:10:17;100698.56;;;15.92;99.28
20630;BME280;17386;43.846;25.950;2023-04-15T07:12:42;100699.63;;;16.04;97.38
20630;BME280;17386;43.846;25.950;2023-04-15T07:15:08;100711.25;;;16.19;96.40
20630;BME280;17386;43.846;25.950;2023-04-15T07:17:33;100717.81;;;16.29;94.71
20630;BME280;17386;43.846;25.950;2023-04-15T07:19:58;100723.63;;;16.21;93.06
20630;BME280;17386;43.846;25.950;2023-04-15T07:22:24;100727.94;;;16.24;91.42
20630;BME280;17386;43.846;25.950;2023-04-15T07:24:50;100734.56;;;16.02;92.52
20630;BME280;17386;43.846;25.950;2023-04-15T07:27:15;100746.91;;;16.21;90.68
20630;BME280;17386;43.846;25.950;2023-04-15T07:29:42;100756.16;;;16.15;90.53
20630;BME280;17386;43.846;25.950;2023-04-15T07:32:07;100749.88;;;16.30;92.23
20630;BME280;17386;43.846;25.950;2023-04-15T07:34:34;100761.16;;;16.51;92.23
20630;BME280;17386;43.846;25.950;2023-04-15T07:37:00;100766.34;;;16.54;92.34
20630;BME280;17386;43.846;25.950;2023-04-15T07:39:25;100760.00;;;16.41;93.11
20630;BME280;17386;43.846;25.950;2023-04-15T07:41:51;100767.78;;;16.60;93.53
20630;BME280;17386;43.846;25.950;2023-04-15T07:44:16;100761.03;;;16.53;93.29
20630;BME280;17386;43.846;25.950;2023-04-15T07:46:42;100775.81;;;16.60;93.59
20630;BME280;17386;43.846;25.950;2023-04-15T07:49:07;100779.09;;;16.65;93.50
20630;BME280;17386;43.846;25.950;2023-04-15T07:51:33;100785.09;;;16.70;91.53
20630;BME280;17386;43.846;25.950;2023-04-15T07:53:58;100790.09;;;16.90;90.47
20630;BME280;17386;43.846;25.950;2023-04-15T07:56:24;100793.19;;;16.99;89.77
20630;BME280;17386;43.846;25.950;2023-04-15T07:58:50;100791.34;;;16.99;87.46
20630;BME280;17386;43.846;25.950;2023-04-15T08:01:16;100802.28;;;16.96;87.72
20630;BME280;17386;43.846;25.950;2023-04-15T08:03:41;100804.19;;;17.08;87.51
20630;BME280;17386;43.846;25.950;2023-04-15T08:06:07;100809.00;;;17.17;87.68
20630;BME280;17386;43.846;25.950;2023-04-15T08:08:32;100811.09;;;16.98;87.19
20630;BME280;17386;43.846;25.950;2023-04-15T08:10:58;100816.06;;;16.76;87.41
20630;BME280;17386;43.846;25.950;2023-04-15T08:13:24;100813.78;;;16.98;89.28
20630;BME280;17386;43.846;25.950;2023-04-15T08:16:12;100816.69;;;17.09;87.69
20630;BME280;17386;43.846;25.950;2023-04-15T08:18:38;100817.25;;;17.29;87.20
20630;BME280;17386;43.846;25.950;2023-04-15T08:21:03;100797.56;;;17.00;86.85
20630;BME280;17386;43.846;25.950;2023-04-15T08:23:30;100818.88;;;17.17;86.96
20630;BME280;17386;43.846;25.950;2023-04-15T08:25:55;100799.13;;;17.18;86.43
20630;BME280;17386;43.846;25.950;2023-04-15T08:28:21;100823.09;;;17.35;83.93
20630;BME280;17386;43.846;25.950;2023-04-15T08:30:46;100823.94;;;17.36;83.35
20630;BME280;17386;43.846;25.950;2023-04-15T08:33:12;100831.63;;;17.28;81.30
20630;BME280;17386;43.846;25.950;2023-04-15T08:35:38;100821.69;;;17.44;81.48
20630;BME280;17386;43.846;25.950;2023-04-15T08:38:04;100818.66;;;17.63;80.51
20630;BME280;17386;43.846;25.950;2023-04-15T08:40:38;100823.19;;;17.76;81.64
20630;BME280;17386;43.846;25.950;2023-04-15T08:43:08;100817.63;;;17.80;81.34
20630;BME280;17386;43.846;25.950;2023-04-15T08:45:34;100805.25;;;17.77;81.55
20630;BME280;17386;43.846;25.950;2023-04-15T08:48:01;100816.75;;;17.93;81.92
20630;BME280;17386;43.846;25.950;2023-04-15T08:50:30;100816.88;;;18.04;79.95
20630;BME280;17386;43.846;25.950;2023-04-15T08:52:58;100823.16;;;18.05;79.47
20630;BME280;17386;43.846;25.950;2023-04-15T08:55:28;100816.53;;;17.96;80.54
20630;BME280;17386;43.846;25.950;2023-04-15T08:57:55;100824.25;;;18.15;78.93
20630;BME280;17386;43.846;25.950;2023-04-15T09:00:21;100826.25;;;17.99;78.53
20630;BME280;17386;43.846;25.950;2023-04-15T09:02:47;100823.63;;;18.24;77.96
20630;BME280;17386;43.846;25.950;2023-04-15T09:05:13;100820.44;;;18.32;76.94
20630;BME280;17386;43.846;25.950;2023-04-15T09:07:38;100828.97;;;18.39;75.85
20630;BME280;17386;43.846;25.950;2023-04-15T09:10:04;100818.53;;;18.34;75.46
20630;BME280;17386;43.846;25.950;2023-04-15T09:12:30;100832.09;;;18.45;74.64
20630;BME280;17386;43.846;25.950;2023-04-15T09:14:56;100827.13;;;18.66;75.86
20630;BME280;17386;43.846;25.950;2023-04-15T09:17:21;100831.41;;;18.56;75.76
20630;BME280;17386;43.846;25.950;2023-04-15T09:19:49;100830.72;;;18.92;76.83
20630;BME280;17386;43.846;25.950;2023-04-15T09:22:31;100830.56;;;19.08;77.08
20630;BME280;17386;43.846;25.950;2023-04-15T09:24:57;100826.22;;;19.05;75.00
20630;BME280;17386;43.846;25.950;2023-04-15T09:27:22;100821.59;;;19.20;76.06
20630;BME280;17386;43.846;25.950;2023-04-15T09:29:49;100820.53;;;19.35;72.48
20630;BME280;17386;43.846;25.950;2023-04-15T09:32:15;100829.34;;;19.37;69.97
20630;BME280;17386;43.846;25.950;2023-04-15T09:34:41;100829.03;;;19.29;64.77
20630;BME280;17386;43.846;25.950;2023-04-15T09:37:07;100826.22;;;19.31;66.33
20630;BME280;17386;43.846;25.950;2023-04-15T09:39:48;100831.31;;;19.23;65.76
20630;BME280;17386;43.846;25.950;2023-04-15T09:42:15;100824.28;;;19.33;69.32
20630;BME280;17386;43.846;25.950;2023-04-15T09:44:42;100807.88;;;19.49;67.60
20630;BME280;17386;43.846;25.950;2023-04-15T09:47:07;100808.13;;;19.58;67.08
20630;BME280;17386;43.846;25.950;2023-04-15T09:49:33;100806.19;;;19.60;65.52
20630;BME280;17386;43.846;25.950;2023-04-15T09:52:00;100809.16;;;19.68;63.61
20630;BME280;17386;43.846;25.950;2023-04-15T09:54:36;100802.56;;;19.85;62.98
20630;BME280;17386;43.846;25.950;2023-04-15T09:57:08;100799.34;;;19.80;65.92
20630;BME280;17386;43.846;25.950;2023-04-15T09:59:37;100802.13;;;20.15;66.06
20630;BME280;17386;43.846;25.950;2023-04-15T10:02:05;100815.56;;;20.28;61.61
20630;BME280;17386;43.846;25.950;2023-04-15T10:04:39;100813.03;;;20.62;60.20
20630;BME280;17386;43.846;25.950;2023-04-15T10:07:05;100801.63;;;20.69;56.61
20630;BME280;17386;43.846;25.950;2023-04-15T10:09:31;100800.72;;;20.93;56.27
20630;BME280;17386;43.846;25.950;2023-04-15T10:11:57;100802.00;;;21.34;55.75
20630;BME280;17386;43.846;25.950;2023-04-15T10:14:24;100793.81;;;21.57;56.16
20630;BME280;17386;43.846;25.950;2023-04-15T10:16:52;100790.75;;;21.28;56.35
20630;BME280;17386;43.846;25.950;2023-04-15T10:19:25;100787.56;;;21.35;55.91
20630;BME280;17386;43.846;25.950;2023-04-15T10:21:52;100787.28;;;21.71;55.13
20630;BME280;17386;43.846;25.950;2023-04-15T10:24:19;100793.75;;;21.91;53.22
20630;BME280;17386;43.846;25.950;2023-04-15T10:26:45;100784.88;;;22.00;52.86
20630;BME280;17386;43.846;25.950;2023-04-15T10:29:11;100795.47;;;21.81;53.45
20630;BME280;17386;43.846;25.950;2023-04-15T10:31:37;100795.97;;;21.97;51.04
20630;BME280;17386;43.846;25.950;2023-04-15T10:34:04;100808.03;;;21.60;50.08
20630;BME280;17386;43.846;25.950;2023-04-15T10:36:31;100804.25;;;21.51;50.88
20630;BME280;17386;43.846;25.950;2023-04-15T10:38:56;100796.50;;;21.69;48.79
20630;BME280;17386;43.846;25.950;2023-04-15T10:41:25;100793.34;;;21.96;47.70
20630;BME280;17386;43.846;25.950;2023-04-15T10:44:03;100774.19;;;21.88;49.38
20630;BME280;17386;43.846;25.950;2023-04-15T10:46:40;100788.06;;;22.05;51.46
20630;BME280;17386;43.846;25.950;2023-04-15T10:49:08;100783.88;;;22.24;49.14
20630;BME280;17386;43.846;25.950;2023-04-15T10:51:49;100796.59;;;22.33;48.19
20630;BME280;17386;43.846;25.950;2023-04-15T10:54:29;100786.25;;;22.38;48.47
20630;BME280;17386;43.846;25.950;2023-04-15T10:59:37;100770.06;;;22.27;46.60
20630;BME280;17386;43.846;25.950;2023-04-15T11:02:05;100785.81;;;22.54;45.46
20630;BME280;17386;43.846;25.950;2023-04-15T11:04:53;100792.22;;;22.53;45.20
20630;BME280;17386;43.846;25.950;2023-04-15T11:10:01;100794.50;;;22.57;43.44
20630;BME280;17386;43.846;25.950;2023-04-15T11:12:36;100787.72;;;22.63;42.90
20630;BME280;17386;43.846;25.950;2023-04-15T11:17:56;100783.84;;;22.77;43.38
20630;BME280;17386;43.846;25.950;2023-04-15T11:20:22;100783.28;;;22.94;42.40
20630;BME280;17386;43.846;25.950;2023-04-15T11:22:49;100780.56;;;22.94;42.65
20630;BME280;17386;43.846;25.950;2023-04-15T11:25:26;100777.88;;;22.41;43.55
20630;BME280;17386;43.846;25.950;2023-04-15T11:27:52;100778.88;;;22.61;43.31
20630;BME280;17386;43.846;25.950;2023-04-15T11:30:28;100776.56;;;22.56;43.84
20630;BME280;17386;43.846;25.950;2023-04-15T11:32:57;100776.81;;;22.32;43.59
20630;BME280;17386;43.846;25.950;2023-04-15T11:35:23;100784.00;;;22.00;43.39
20630;BME280;17386;43.846;25.950;2023-04-15T11:37:49;100787.00;;;22.29;43.34
20630;BME280;17386;43.846;25.950;2023-04-15T11:40:16;100781.31;;;22.64;42.02
20630;BME280;17386;43.846;25.950;2023-04-15T11:42:44;100780.59;;;22.62;42.00
20630;BME280;17386;43.846;25.950;2023-04-15T11:45:13;100782.50;;;22.50;42.21
20630;BME280;17386;43.846;25.950;2023-04-15T11:47:40;100792.09;;;22.54;41.70
20630;BME280;17386;43.846;25.950;2023-04-15T11:50:16;100780.25;;;22.55;41.24
20630;BME280;17386;43.846;25.950;2023-04-15T11:52:53;100776.66;;;22.34;42.37
20630;BME280;17386;43.846;25.950;2023-04-15T11:55:18;100769.53;;;22.33;41.56
20630;BME280;17386;43.846;25.950;2023-04-15T11:57:44;100772.72;;;22.38;41.61
20630;BME280;17386;43.846;25.950;2023-04-15T12:00:10;100771.66;;;22.50;40.37
20630;BME280;17386;43.846;25.950;2023-04-15T12:02:36;100762.63;;;22.40;40.00
20630;BME280;17386;43.846;25.950;2023-04-15T12:05:10;100759.22;;;22.59;40.04
20630;BME280;17386;43.846;25.950;2023-04-15T12:07:58;100746.38;;;22.40;40.54
20630;BME280;17386;43.846;25.950;2023-04-15T12:10:24;100744.53;;;22.41;40.51
20630;BME280;17386;43.846;25.950;2023-04-15T12:12:51;100747.72;;;22.46;41.09
20630;BME280;17386;43.846;25.950;2023-04-15T12:15:21;100749.44;;;22.47;40.95
20630;BME280;17386;43.846;25.950;2023-04-15T12:17:47;100748.03;;;22.52;41.01
20630;BME280;17386;43.846;25.950;2023-04-15T12:20:12;100740.03;;;22.51;41.77
20630;BME280;17386;43.846;25.950;2023-04-15T12:22:38;100742.22;;;22.57;41.62
20630;BME280;17386;43.846;25.950;2023-04-15T12:25:03;100739.19;;;22.50;42.12
20630;BME280;17386;43.846;25.950;2023-04-15T12:27:30;100733.44;;;22.64;42.58
20630;BME280;17386;43.846;25.950;2023-04-15T12:30:03;100740.66;;;22.54;41.90
20630;BME280;17386;43.846;25.950;2023-04-15T12:32:34;100734.91;;;22.48;41.26
20630;BME280;17386;43.846;25.950;2023-04-15T12:34:59;100741.13;;;22.59;41.58
20630;BME280;17386;43.846;25.950;2023-04-15T12:37:25;100742.22;;;22.04;41.66
20630;BME280;17386;43.846;25.950;2023-04-15T12:39:51;100747.34;;;22.07;42.11
20630;BME280;17386;43.846;25.950;2023-04-15T12:42:18;100737.09;;;22.22;42.83